Time;durP1;ratioP1;P1;durP2;ratioP2;P2;SDS_P1;SDS_P2;PMS_P1;PMS_P2;Temp;Humidity;BMP_temperature;BMP_pressure;BME280_temperature;BME280_humidity;BME280_pressure;Samples;Min_cycle;Max_cycle;Signal;HPM_P1;HPM_P2
2023/07/09 00:02:20;;;;;;;7.38;4.38;;;;;;;;;;5026971;28;20042;-70
2023/07/09 00:04:45;;;;;;;7.30;4.65;;;;;;;;;;5027070;28;20136;-70
2023/07/09 00:07:33;;;;;;;6.53;4.47;;;;;;;;;;5025519;28;20121;-70
2023/07/09 00:09:59;;;;;;;8.73;4.50;;;;;;;;;;5015268;28;20565;-70
2023/07/09 00:12:24;;;;;;;7.72;4.70;;;;;;;;;;5026512;28;20053;-70
2023/07/09 00:14:50;;;;;;;7.88;4.50;;;;;;;;;;5026756;28;20067;-69
2023/07/09 00:17:25;;;;;;;6.88;4.63;;;;;;;;;;5025255;28;20026;-70
2023/07/09 00:19:51;;;;;;;6.93;4.00;;;;;;;;;;5025711;28;20033;-70
2023/07/09 00:22:17;;;;;;;8.73;4.78;;;;;;;;;;5025233;28;20030;-69
2023/07/09 00:24:47;;;;;;;8.52;4.65;;;;;;;;;;5037942;28;20116;-70
2023/07/09 00:27:15;;;;;;;7.05;4.93;;;;;;;;;;5026138;28;20029;-70
2023/07/09 00:29:41;;;;;;;6.82;4.82;;;;;;;;;;5026309;28;20032;-70
2023/07/09 00:32:15;;;;;;;8.88;4.47;;;;;;;;;;5026420;28;20022;-70
2023/07/09 00:34:44;;;;;;;8.85;4.88;;;;;;;;;;5024542;28;20570;-70
2023/07/09 00:37:12;;;;;;;7.03;4.68;;;;;;;;;;5017769;28;20044;-70
2023/07/09 00:39:37;;;;;;;8.02;4.85;;;;;;;;;;5011345;28;20048;-70
2023/07/09 00:42:03;;;;;;;8.27;5.60;;;;;;;;;;5049860;28;20029;-70
2023/07/09 00:44:30;;;;;;;9.80;5.13;;;;;;;;;;5014503;28;20083;-70
2023/07/09 00:47:02;;;;;;;10.20;5.07;;;;;;;;;;5024336;28;20038;-70
2023/07/09 00:49:37;;;;;;;11.07;5.00;;;;;;;;;;5025462;28;20045;-70
2023/07/09 00:52:23;;;;;;;10.60;5.15;;;;;;;;;;5024453;28;20037;-70
2023/07/09 00:54:51;;;;;;;9.70;5.10;;;;;;;;;;5025974;28;20114;-70
2023/07/09 00:57:21;;;;;;;10.10;4.50;;;;;;;;;;5025248;28;20463;-69
2023/07/09 00:59:52;;;;;;;10.77;5.47;;;;;;;;;;5025809;28;20014;-70
2023/07/09 01:02:22;;;;;;;10.52;4.72;;;;;;;;;;5025081;28;20144;-70
2023/07/09 01:04:49;;;;;;;11.80;5.13;;;;;;;;;;5025281;28;20037;-70
2023/07/09 01:07:16;;;;;;;9.63;5.60;;;;;;;;;;5025735;28;20050;-70
2023/07/09 01:09:42;;;;;;;10.73;5.68;;;;;;;;;;5025841;28;20036;-70
2023/07/09 01:12:09;;;;;;;14.15;5.80;;;;;;;;;;5025414;28;20072;-69
2023/07/09 01:14:36;;;;;;;9.68;4.88;;;;;;;;;;5025413;28;20025;-70
2023/07/09 01:17:05;;;;;;;8.77;5.18;;;;;;;;;;5025689;28;20248;-70
2023/07/09 01:19:43;;;;;;;10.75;5.25;;;;;;;;;;5026397;28;20034;-70
2023/07/09 01:22:13;;;;;;;10.93;5.18;;;;;;;;;;5028393;28;20044;-69
2023/07/09 01:25:01;;;;;;;10.32;5.03;;;;;;;;;;5047198;28;20090;-70
2023/07/09 01:27:46;;;;;;;11.15;5.30;;;;;;;;;;5023847;28;20073;-69
2023/07/09 01:30:28;;;;;;;8.77;5.25;;;;;;;;;;5025719;28;20029;-70
2023/07/09 01:32:57;;;;;;;10.95;5.18;;;;;;;;;;5026037;28;20033;-70
2023/07/09 01:35:23;;;;;;;10.02;5.28;;;;;;;;;;5025684;28;20044;-70
2023/07/09 01:37:48;;;;;;;10.43;6.15;;;;;;;;;;5037373;28;20210;-70
2023/07/09 01:40:17;;;;;;;8.02;5.80;;;;;;;;;;5024832;28;20037;-70
2023/07/09 01:42:42;;;;;;;9.77;5.20;;;;;;;;;;5024922;28;20511;-70
2023/07/09 01:45:10;;;;;;;12.32;5.40;;;;;;;;;;5024431;28;20040;-70
2023/07/09 01:47:36;;;;;;;14.90;5.32;;;;;;;;;;5025979;28;20030;-70
2023/07/09 01:50:02;;;;;;;9.80;5.25;;;;;;;;;;5023676;28;20037;-70
2023/07/09 01:52:29;;;;;;;9.02;5.00;;;;;;;;;;5023563;28;20029;-69
2023/07/09 01:54:55;;;;;;;10.90;5.38;;;;;;;;;;5025274;28;20048;-69
2023/07/09 01:57:33;;;;;;;10.57;5.60;;;;;;;;;;5024529;28;20080;-70
2023/07/09 02:00:00;;;;;;;14.30;5.50;;;;;;;;;;5024978;28;20036;-70
2023/07/09 02:02:26;;;;;;;11.57;5.50;;;;;;;;;;5024896;28;20033;-69
2023/07/09 02:04:54;;;;;;;11.98;5.60;;;;;;;;;;5033692;28;20466;-70
2023/07/09 02:07:21;;;;;;;11.57;5.60;;;;;;;;;;5022882;28;20041;-70
2023/07/09 02:09:47;;;;;;;12.00;5.45;;;;;;;;;;5024638;28;20111;-70
2023/07/09 02:12:13;;;;;;;10.00;5.50;;;;;;;;;;5031945;28;20485;-70
2023/07/09 02:14:40;;;;;;;10.27;5.63;;;;;;;;;;5026125;28;20108;-70
2023/07/09 02:17:06;;;;;;;11.52;5.28;;;;;;;;;;5024416;28;20033;-70
2023/07/09 02:19:31;;;;;;;10.77;5.60;;;;;;;;;;5024443;28;20527;-70
2023/07/09 02:21:57;;;;;;;9.27;5.15;;;;;;;;;;5024761;28;20065;-70
2023/07/09 02:24:24;;;;;;;13.05;5.15;;;;;;;;;;5024421;28;20061;-70
2023/07/09 02:27:01;;;;;;;10.18;5.80;;;;;;;;;;5024428;28;20115;-69
2023/07/09 02:29:28;;;;;;;8.30;4.88;;;;;;;;;;5032459;28;20037;-69
2023/07/09 02:31:56;;;;;;;11.55;5.40;;;;;;;;;;5040278;28;20036;-70
2023/07/09 02:34:25;;;;;;;15.13;5.80;;;;;;;;;;5029180;28;20605;-70
2023/07/09 02:36:54;;;;;;;10.93;5.28;;;;;;;;;;5025035;28;20123;-70
2023/07/09 02:39:20;;;;;;;12.27;5.50;;;;;;;;;;5036612;28;20037;-69
2023/07/09 02:41:46;;;;;;;9.57;5.57;;;;;;;;;;5024760;28;20037;-70
2023/07/09 02:44:11;;;;;;;12.45;5.18;;;;;;;;;;5024708;28;20059;-70
2023/07/09 02:46:36;;;;;;;9.52;4.88;;;;;;;;;;5026202;28;20030;-69
2023/07/09 02:49:06;;;;;;;8.77;5.40;;;;;;;;;;5031493;28;20454;-69
2023/07/09 02:51:32;;;;;;;8.80;5.32;;;;;;;;;;5035833;28;20034;-70
2023/07/09 02:53:59;;;;;;;12.05;5.38;;;;;;;;;;5029960;28;20124;-70
2023/07/09 02:56:24;;;;;;;9.18;5.00;;;;;;;;;;5028654;28;20518;-69
2023/07/09 02:58:50;;;;;;;9.07;4.93;;;;;;;;;;5027414;28;20045;-70
2023/07/09 03:01:16;;;;;;;10.30;5.47;;;;;;;;;;5031301;28;20048;-70
2023/07/09 03:03:42;;;;;;;12.50;5.50;;;;;;;;;;5037717;28;20029;-70
2023/07/09 03:06:07;;;;;;;8.43;5.60;;;;;;;;;;5027179;28;20068;-70
2023/07/09 03:08:32;;;;;;;11.40;5.72;;;;;;;;;;5028914;28;20029;-69
2023/07/09 03:11:00;;;;;;;9.75;5.25;;;;;;;;;;5026093;28;20046;-70
2023/07/09 03:13:25;;;;;;;9.98;6.00;;;;;;;;;;5027316;28;20132;-69
2023/07/09 03:15:57;;;;;;;11.73;5.28;;;;;;;;;;5027516;28;20124;-69
2023/07/09 03:18:23;;;;;;;7.68;5.15;;;;;;;;;;5027518;28;20033;-70
2023/07/09 03:20:48;;;;;;;8.63;5.20;;;;;;;;;;5027679;28;20025;-69
2023/07/09 03:23:14;;;;;;;9.32;5.07;;;;;;;;;;5027345;28;20037;-69
2023/07/09 03:25:45;;;;;;;9.35;5.57;;;;;;;;;;5027105;28;20669;-69
2023/07/09 03:28:12;;;;;;;12.20;5.32;;;;;;;;;;5027555;28;20042;-70
2023/07/09 03:30:41;;;;;;;7.57;4.82;;;;;;;;;;5027571;28;20087;-70
2023/07/09 03:33:07;;;;;;;11.82;5.38;;;;;;;;;;5027169;28;20036;-70
2023/07/09 03:35:34;;;;;;;10.35;4.88;;;;;;;;;;5027560;28;20037;-70
2023/07/09 03:37:59;;;;;;;15.73;5.40;;;;;;;;;;5027351;28;20041;-70
2023/07/09 03:40:24;;;;;;;13.50;4.90;;;;;;;;;;5027243;28;20056;-70
2023/07/09 03:42:50;;;;;;;9.45;4.85;;;;;;;;;;5026456;28;20048;-70
2023/07/09 03:45:15;;;;;;;9.98;5.43;;;;;;;;;;5027114;28;20030;-70
2023/07/09 03:47:40;;;;;;;11.10;5.10;;;;;;;;;;5027717;28;20034;-70
2023/07/09 03:50:08;;;;;;;10.77;5.10;;;;;;;;;;5026476;28;20033;-70
2023/07/09 03:52:33;;;;;;;11.60;5.82;;;;;;;;;;5027117;28;20610;-69
2023/07/09 03:55:00;;;;;;;8.48;5.25;;;;;;;;;;5026576;28;20515;-70
2023/07/09 03:57:26;;;;;;;11.18;5.43;;;;;;;;;;5025622;28;20036;-70
2023/07/09 03:59:52;;;;;;;10.20;5.40;;;;;;;;;;5027157;28;20491;-69
2023/07/09 04:02:17;;;;;;;12.30;6.00;;;;;;;;;;5046731;28;20083;-69
2023/07/09 04:04:42;;;;;;;9.63;4.97;;;;;;;;;;5046509;28;20732;-70
2023/07/09 04:07:08;;;;;;;14.02;5.30;;;;;;;;;;5046181;28;20183;-70
2023/07/09 04:09:33;;;;;;;11.05;5.93;;;;;;;;;;5046884;28;20071;-70
2023/07/09 04:12:01;;;;;;;10.20;5.32;;;;;;;;;;5046181;28;20490;-70
2023/07/09 04:14:26;;;;;;;12.50;6.05;;;;;;;;;;5028208;28;20032;-69
2023/07/09 04:16:52;;;;;;;11.27;5.43;;;;;;;;;;5030926;28;20296;-70
2023/07/09 04:19:17;;;;;;;11.02;5.50;;;;;;;;;;5035381;28;20029;-70
2023/07/09 04:21:42;;;;;;;10.85;5.65;;;;;;;;;;5032754;28;20113;-70
2023/07/09 04:24:07;;;;;;;12.40;5.80;;;;;;;;;;5028283;28;20029;-69
2023/07/09 04:26:33;;;;;;;13.57;5.88;;;;;;;;;;5027348;28;20017;-70
2023/07/09 04:28:59;;;;;;;14.55;5.30;;;;;;;;;;5026686;28;20056;-69
2023/07/09 04:31:24;;;;;;;11.88;5.60;;;;;;;;;;5024065;28;20048;-69
2023/07/09 04:33:52;;;;;;;10.23;5.93;;;;;;;;;;5005271;28;20049;-69
2023/07/09 04:36:18;;;;;;;15.48;5.95;;;;;;;;;;5014535;28;20068;-70
2023/07/09 04:38:43;;;;;;;8.57;5.25;;;;;;;;;;5021675;28;20064;-70
2023/07/09 04:41:08;;;;;;;12.75;7.07;;;;;;;;;;5026040;28;20124;-69
2023/07/09 04:43:34;;;;;;;16.90;7.32;;;;;;;;;;5014674;28;20036;-70
2023/07/09 04:45:59;;;;;;;17.05;7.72;;;;;;;;;;5025699;28;20034;-70
2023/07/09 04:48:24;;;;;;;18.38;9.15;;;;;;;;;;5058062;28;20026;-69
2023/07/09 04:50:50;;;;;;;16.23;10.18;;;;;;;;;;5019664;28;20484;-70
2023/07/09 04:53:16;;;;;;;25.00;11.20;;;;;;;;;;5024633;28;20430;-69
2023/07/09 04:55:41;;;;;;;29.30;12.70;;;;;;;;;;5025530;28;20687;-69
2023/07/09 04:58:07;;;;;;;22.27;13.07;;;;;;;;;;5025852;28;20033;-69
2023/07/09 05:00:32;;;;;;;24.55;14.07;;;;;;;;;;5025487;28;20057;-69
2023/07/09 05:02:58;;;;;;;25.15;13.95;;;;;;;;;;5025345;28;20084;-69
2023/07/09 05:05:23;;;;;;;25.10;14.52;;;;;;;;;;5026192;28;20056;-69
2023/07/09 05:07:49;;;;;;;21.10;14.18;;;;;;;;;;5020078;28;20053;-67
2023/07/09 05:10:14;;;;;;;23.58;14.18;;;;;;;;;;5018126;28;20037;-69
2023/07/09 05:12:50;;;;;;;25.98;13.90;;;;;;;;;;5025251;28;20038;-69
2023/07/09 05:15:17;;;;;;;26.27;14.85;;;;;;;;;;5024578;28;20500;-69
2023/07/09 05:17:42;;;;;;;21.02;13.60;;;;;;;;;;5025617;28;20100;-69
2023/07/09 05:20:08;;;;;;;25.30;14.82;;;;;;;;;;5025390;28;20149;-69
2023/07/09 05:22:33;;;;;;;25.13;15.05;;;;;;;;;;5024922;28;20420;-69
2023/07/09 05:24:58;;;;;;;25.63;14.18;;;;;;;;;;5025366;28;20056;-69
2023/07/09 05:27:24;;;;;;;30.65;16.08;;;;;;;;;;5024705;28;20030;-69
2023/07/09 05:29:49;;;;;;;26.40;15.63;;;;;;;;;;5025202;28;20044;-69
2023/07/09 05:32:15;;;;;;;25.20;15.65;;;;;;;;;;5025131;28;20154;-69
2023/07/09 05:34:40;;;;;;;21.23;13.90;;;;;;;;;;5024721;28;20037;-69
2023/07/09 05:37:05;;;;;;;23.50;15.15;;;;;;;;;;5021571;28;20037;-69
2023/07/09 05:39:31;;;;;;;22.98;14.35;;;;;;;;;;5018773;28;20033;-69
2023/07/09 05:41:56;;;;;;;31.73;18.45;;;;;;;;;;5019260;28;20436;-69
2023/07/09 05:44:21;;;;;;;30.30;18.55;;;;;;;;;;5029327;28;20018;-69
2023/07/09 05:46:47;;;;;;;28.45;17.63;;;;;;;;;;5032018;28;20190;-69
2023/07/09 05:49:12;;;;;;;32.70;19.17;;;;;;;;;;5059651;28;20044;-69
2023/07/09 05:51:37;;;;;;;33.97;20.50;;;;;;;;;;5024962;28;20040;-69
2023/07/09 05:54:03;;;;;;;36.20;21.95;;;;;;;;;;5017177;28;20050;-69
2023/07/09 05:56:28;;;;;;;39.28;24.17;;;;;;;;;;5019508;28;20446;-69
2023/07/09 05:58:54;;;;;;;43.25;25.70;;;;;;;;;;5009414;28;20044;-69
2023/07/09 06:01:20;;;;;;;47.20;27.63;;;;;;;;;;5014376;28;20057;-69
2023/07/09 06:03:46;;;;;;;48.75;27.92;;;;;;;;;;5024198;28;20041;-69
2023/07/09 06:06:12;;;;;;;55.85;31.92;;;;;;;;;;5023672;28;20045;-69
2023/07/09 06:08:38;;;;;;;51.40;29.42;;;;;;;;;;5025237;28;20137;-69
2023/07/09 06:11:03;;;;;;;49.10;30.00;;;;;;;;;;5019401;28;20327;-69
2023/07/09 06:13:30;;;;;;;50.80;29.20;;;;;;;;;;5024964;28;20046;-69
2023/07/09 06:15:57;;;;;;;48.40;28.65;;;;;;;;;;5024575;28;20567;-69
2023/07/09 06:18:23;;;;;;;46.60;26.27;;;;;;;;;;5022326;28;20037;-69
2023/07/09 06:20:55;;;;;;;50.35;27.73;;;;;;;;;;5027184;28;20411;-69
2023/07/09 06:23:20;;;;;;;46.65;26.30;;;;;;;;;;5027733;28;20610;-69
2023/07/09 06:25:47;;;;;;;46.17;25.80;;;;;;;;;;5027188;28;20136;-69
2023/07/09 06:28:14;;;;;;;46.25;26.70;;;;;;;;;;5037612;28;20044;-69
2023/07/09 06:30:40;;;;;;;52.13;28.35;;;;;;;;;;5047550;28;20052;-69
2023/07/09 06:33:06;;;;;;;46.15;26.50;;;;;;;;;;5047655;28;20508;-69
2023/07/09 06:35:32;;;;;;;47.72;27.30;;;;;;;;;;5046330;28;20013;-69
2023/07/09 06:37:57;;;;;;;45.50;26.25;;;;;;;;;;5030190;28;20037;-69
2023/07/09 06:40:24;;;;;;;48.38;27.13;;;;;;;;;;5027921;28;20107;-69
2023/07/09 06:42:49;;;;;;;44.03;25.30;;;;;;;;;;5028275;28;20054;-69
2023/07/09 06:45:14;;;;;;;43.33;25.45;;;;;;;;;;5027683;28;20041;-69
2023/07/09 06:47:40;;;;;;;46.97;26.98;;;;;;;;;;5028257;28;20033;-69
2023/07/09 06:50:06;;;;;;;45.78;25.13;;;;;;;;;;5028402;28;20036;-69
2023/07/09 06:52:31;;;;;;;41.58;25.25;;;;;;;;;;5028463;28;20124;-70
2023/07/09 06:54:57;;;;;;;41.47;23.98;;;;;;;;;;5023561;28;20128;-70
2023/07/09 06:57:22;;;;;;;42.90;22.73;;;;;;;;;;5021606;28;20091;-69
2023/07/09 06:59:47;;;;;;;37.75;23.02;;;;;;;;;;5028606;28;20052;-69
2023/07/09 07:02:12;;;;;;;37.42;20.92;;;;;;;;;;5026293;28;20046;-69
2023/07/09 07:04:38;;;;;;;38.95;21.20;;;;;;;;;;5028497;28;20045;-69
2023/07/09 07:07:03;;;;;;;30.45;19.35;;;;;;;;;;5028047;28;20096;-69
2023/07/09 07:09:29;;;;;;;28.60;16.30;;;;;;;;;;5029547;28;20026;-69
2023/07/09 07:11:54;;;;;;;24.13;15.55;;;;;;;;;;5041350;28;20029;-69
2023/07/09 07:14:19;;;;;;;21.65;13.70;;;;;;;;;;5040532;28;20022;-69
2023/07/09 07:16:45;;;;;;;24.92;13.27;;;;;;;;;;5032088;28;20041;-69
2023/07/09 07:19:10;;;;;;;18.67;10.27;;;;;;;;;;5028397;28;20503;-69
2023/07/09 07:21:35;;;;;;;17.30;10.57;;;;;;;;;;5027887;28;20041;-69
2023/07/09 07:24:01;;;;;;;17.75;9.90;;;;;;;;;;5027455;28;20045;-69
2023/07/09 07:26:27;;;;;;;16.00;9.80;;;;;;;;;;5027626;28;20025;-69
2023/07/09 07:28:52;;;;;;;17.10;9.68;;;;;;;;;;5027133;28;20103;-69
2023/07/09 07:31:18;;;;;;;17.25;9.23;;;;;;;;;;5023956;28;20091;-69
2023/07/09 07:33:43;;;;;;;18.42;8.90;;;;;;;;;;5026298;28;20048;-69
2023/07/09 07:36:12;;;;;;;17.48;9.43;;;;;;;;;;5035882;28;20029;-69
2023/07/09 07:38:37;;;;;;;18.83;8.73;;;;;;;;;;5030269;28;20025;-69
2023/07/09 07:41:02;;;;;;;16.27;7.90;;;;;;;;;;5024979;28;20033;-69
2023/07/09 07:43:28;;;;;;;15.60;8.63;;;;;;;;;;5025267;28;20041;-69
2023/07/09 07:45:53;;;;;;;13.45;8.68;;;;;;;;;;5026090;28;20044;-69
2023/07/09 07:48:19;;;;;;;16.13;10.25;;;;;;;;;;5026756;28;20112;-69
2023/07/09 07:50:45;;;;;;;16.02;8.32;;;;;;;;;;5026964;28;20060;-69
2023/07/09 07:53:11;;;;;;;13.98;8.15;;;;;;;;;;5025954;28;20048;-69
2023/07/09 07:55:37;;;;;;;14.52;8.98;;;;;;;;;;5026851;28;20030;-69
2023/07/09 07:58:03;;;;;;;15.68;7.95;;;;;;;;;;5018443;28;20416;-69
2023/07/09 08:00:30;;;;;;;13.70;7.53;;;;;;;;;;5010891;28;20045;-69
2023/07/09 08:02:55;;;;;;;16.92;7.88;;;;;;;;;;5014621;28;20030;-69
2023/07/09 08:05:20;;;;;;;13.07;6.97;;;;;;;;;;5014648;28;20052;-69
2023/07/09 08:07:46;;;;;;;13.60;7.45;;;;;;;;;;5025121;28;20041;-69
2023/07/09 08:10:12;;;;;;;13.10;6.93;;;;;;;;;;5026442;28;20034;-69
2023/07/09 08:12:38;;;;;;;9.85;6.10;;;;;;;;;;5039666;28;20082;-69
2023/07/09 08:15:04;;;;;;;10.35;5.63;;;;;;;;;;5026238;28;20522;-69
2023/07/09 08:17:29;;;;;;;9.85;5.68;;;;;;;;;;5026676;28;20060;-69
2023/07/09 08:19:55;;;;;;;9.35;5.63;;;;;;;;;;5026440;28;20068;-69
2023/07/09 08:22:21;;;;;;;10.65;5.45;;;;;;;;;;5024682;28;20038;-69
2023/07/09 08:24:51;;;;;;;10.27;5.88;;;;;;;;;;5026325;28;20120;-69
2023/07/09 08:27:17;;;;;;;13.05;6.20;;;;;;;;;;5026163;28;20033;-69
2023/07/09 08:29:42;;;;;;;8.32;5.38;;;;;;;;;;5024602;28;20083;-69
2023/07/09 08:32:09;;;;;;;13.80;6.40;;;;;;;;;;5026457;28;20472;-68
2023/07/09 08:34:35;;;;;;;9.82;5.57;;;;;;;;;;5024887;28;20037;-69
2023/07/09 08:37:00;;;;;;;8.93;4.93;;;;;;;;;;5027184;28;20514;-69
2023/07/09 08:39:26;;;;;;;11.00;5.80;;;;;;;;;;5032490;28;20061;-69
2023/07/09 08:41:56;;;;;;;9.52;5.80;;;;;;;;;;5030190;28;20026;-68
2023/07/09 08:44:35;;;;;;;12.40;6.40;;;;;;;;;;5024730;28;20077;-68
2023/07/09 08:47:07;;;;;;;10.25;6.28;;;;;;;;;;5012986;28;20588;-68
2023/07/09 08:49:43;;;;;;;10.30;6.17;;;;;;;;;;5025001;28;20049;-68
2023/07/09 08:52:17;;;;;;;7.45;5.15;;;;;;;;;;5025358;28;20977;-69
2023/07/09 08:54:45;;;;;;;8.70;5.63;;;;;;;;;;5025395;28;20029;-68
2023/07/09 08:57:23;;;;;;;11.02;5.55;;;;;;;;;;5018709;28;20041;-69
2023/07/09 08:59:51;;;;;;;10.25;5.75;;;;;;;;;;5026017;28;20025;-69
2023/07/09 09:02:35;;;;;;;8.85;5.47;;;;;;;;;;5024743;28;20068;-68
2023/07/09 09:05:03;;;;;;;10.30;5.80;;;;;;;;;;5025501;28;20068;-68
2023/07/09 09:07:43;;;;;;;8.23;5.30;;;;;;;;;;5025800;28;20820;-68
2023/07/09 09:10:21;;;;;;;8.45;5.75;;;;;;;;;;5025593;28;20045;-69
2023/07/09 09:13:09;;;;;;;10.55;5.47;;;;;;;;;;5036682;28;20085;-68
2023/07/09 09:15:37;;;;;;;11.35;5.57;;;;;;;;;;5025088;28;20045;-68
2023/07/09 09:18:22;;;;;;;10.55;5.40;;;;;;;;;;5025032;28;20037;-69
2023/07/09 09:20:56;;;;;;;11.05;6.10;;;;;;;;;;5025343;28;20779;-68
2023/07/09 09:23:22;;;;;;;11.30;5.90;;;;;;;;;;5022684;28;20042;-68
2023/07/09 09:25:53;;;;;;;9.45;5.53;;;;;;;;;;5021611;28;20078;-68
2023/07/09 09:28:19;;;;;;;8.07;5.05;;;;;;;;;;5022357;28;20040;-68
2023/07/09 09:30:44;;;;;;;9.60;5.45;;;;;;;;;;5031745;28;20033;-69
2023/07/09 09:33:14;;;;;;;11.55;5.70;;;;;;;;;;5032751;28;20070;-69
2023/07/09 09:35:49;;;;;;;11.40;5.10;;;;;;;;;;5032371;28;20024;-69
2023/07/09 09:38:22;;;;;;;9.10;5.43;;;;;;;;;;5031528;28;20060;-68
2023/07/09 09:40:48;;;;;;;7.75;4.70;;;;;;;;;;5034666;28;20045;-68
2023/07/09 09:43:17;;;;;;;10.23;5.65;;;;;;;;;;5031263;28;20045;-69
2023/07/09 09:45:44;;;;;;;9.50;4.90;;;;;;;;;;5030836;28;20478;-69
2023/07/09 09:48:29;;;;;;;7.90;4.72;;;;;;;;;;5024410;28;20095;-68
2023/07/09 09:51:00;;;;;;;8.55;5.00;;;;;;;;;;5024860;28;20025;-69
2023/07/09 09:53:27;;;;;;;10.25;5.20;;;;;;;;;;5012260;28;20080;-69
2023/07/09 09:55:54;;;;;;;8.73;4.78;;;;;;;;;;5023140;28;20061;-68
2023/07/09 09:58:24;;;;;;;10.60;5.07;;;;;;;;;;5024337;28;20065;-69
2023/07/09 10:00:51;;;;;;;7.70;5.30;;;;;;;;;;5024687;28;20079;-68
2023/07/09 10:03:17;;;;;;;7.32;4.63;;;;;;;;;;5025520;28;20072;-68
2023/07/09 10:06:15;;;;;;;7.30;4.32;;;;;;;;;;5028809;28;20440;-68
2023/07/09 10:08:40;;;;;;;10.25;5.45;;;;;;;;;;5034899;28;20678;-69
2023/07/09 10:11:29;;;;;;;7.07;5.13;;;;;;;;;;5041076;28;20514;-69
2023/07/09 10:14:00;;;;;;;8.70;5.07;;;;;;;;;;5028063;28;20593;-68
2023/07/09 10:16:35;;;;;;;11.18;4.93;;;;;;;;;;5024416;28;20466;-69
2023/07/09 10:19:04;;;;;;;8.65;4.90;;;;;;;;;;5024127;28;20038;-68
2023/07/09 10:21:38;;;;;;;12.32;4.82;;;;;;;;;;5022871;28;20037;-68
2023/07/09 10:24:31;;;;;;;7.13;4.28;;;;;;;;;;5016424;28;20041;-68
2023/07/09 10:27:06;;;;;;;5.95;4.10;;;;;;;;;;5020459;28;20029;-69
2023/07/09 10:29:59;;;;;;;7.30;4.07;;;;;;;;;;5014530;28;20404;-69
2023/07/09 10:32:25;;;;;;;6.03;3.92;;;;;;;;;;5010879;28;20470;-69
2023/07/09 10:35:01;;;;;;;9.32;4.32;;;;;;;;;;5012805;28;21286;-69
2023/07/09 10:37:47;;;;;;;8.73;4.18;;;;;;;;;;5008936;28;20447;-70
2023/07/09 10:40:17;;;;;;;7.07;4.30;;;;;;;;;;5020225;28;20037;-70
2023/07/09 10:42:47;;;;;;;9.38;4.60;;;;;;;;;;5020219;28;20494;-70
2023/07/09 10:45:46;;;;;;;7.25;4.82;;;;;;;;;;5022568;28;20037;-70
2023/07/09 10:48:18;;;;;;;12.20;6.53;;;;;;;;;;5023425;28;20388;-70
2023/07/09 10:50:52;;;;;;;9.15;4.18;;;;;;;;;;5027546;28;20033;-70
2023/07/09 10:53:30;;;;;;;8.90;5.20;;;;;;;;;;5022036;28;20536;-70
2023/07/09 10:56:36;;;;;;;10.57;5.50;;;;;;;;;;5018379;28;20061;-70
2023/07/09 10:59:26;;;;;;;8.45;5.28;;;;;;;;;;5023647;28;20051;-70
2023/07/09 11:02:16;;;;;;;9.93;5.50;;;;;;;;;;5013380;28;20434;-70
2023/07/09 11:04:49;;;;;;;8.93;5.63;;;;;;;;;;5011512;28;20049;-70
2023/07/09 11:07:21;;;;;;;9.20;5.30;;;;;;;;;;5024716;28;20137;-70
2023/07/09 11:09:49;;;;;;;12.40;6.18;;;;;;;;;;5027799;28;20046;-70
2023/07/09 11:12:35;;;;;;;9.45;5.63;;;;;;;;;;5027792;28;20033;-70
2023/07/09 11:15:10;;;;;;;9.02;5.63;;;;;;;;;;5046956;28;20025;-70
2023/07/09 11:17:39;;;;;;;10.40;5.75;;;;;;;;;;5026789;28;20105;-70
2023/07/09 11:20:17;;;;;;;11.32;5.38;;;;;;;;;;5027503;28;20458;-70
2023/07/09 11:22:52;;;;;;;10.35;5.10;;;;;;;;;;5026914;28;20132;-70
2023/07/09 11:25:47;;;;;;;10.85;5.43;;;;;;;;;;5027294;28;20030;-70
2023/07/09 11:28:13;;;;;;;6.70;5.10;;;;;;;;;;5018615;28;20120;-70
2023/07/09 11:30:51;;;;;;;8.88;4.97;;;;;;;;;;5028370;28;20068;-70
2023/07/09 11:33:19;;;;;;;11.38;5.75;;;;;;;;;;5034818;28;20034;-70
2023/07/09 11:35:50;;;;;;;7.93;5.00;;;;;;;;;;5038634;28;20036;-70
2023/07/09 11:38:24;;;;;;;9.27;4.88;;;;;;;;;;5018488;28;20462;-70
2023/07/09 11:40:52;;;;;;;8.93;5.22;;;;;;;;;;5015544;28;20042;-70
2023/07/09 11:43:48;;;;;;;10.23;5.68;;;;;;;;;;5017668;28;20060;-70
2023/07/09 11:46:26;;;;;;;9.05;5.03;;;;;;;;;;5022687;28;20052;-70
2023/07/09 11:48:54;;;;;;;11.45;5.65;;;;;;;;;;5025428;28;20049;-70
2023/07/09 11:51:41;;;;;;;14.32;6.35;;;;;;;;;;5017531;28;20143;-70
2023/07/09 11:54:12;;;;;;;15.38;7.10;;;;;;;;;;5016025;28;20029;-70
2023/07/09 11:56:37;;;;;;;15.27;6.75;;;;;;;;;;5013121;28;20035;-70
2023/07/09 11:59:02;;;;;;;13.73;6.68;;;;;;;;;;5025807;28;20476;-70
2023/07/09 12:01:34;;;;;;;10.05;6.10;;;;;;;;;;5026133;28;20057;-70
2023/07/09 12:03:59;;;;;;;11.38;6.35;;;;;;;;;;5026674;28;20030;-70
2023/07/09 12:06:31;;;;;;;14.35;6.70;;;;;;;;;;5026533;28;20825;-70
2023/07/09 12:08:57;;;;;;;14.85;7.05;;;;;;;;;;5026206;28;20072;-70
2023/07/09 12:11:27;;;;;;;15.48;7.63;;;;;;;;;;5029344;28;20594;-71
2023/07/09 12:13:53;;;;;;;12.00;6.85;;;;;;;;;;5033431;28;20065;-70
2023/07/09 12:16:29;;;;;;;11.77;7.13;;;;;;;;;;5019459;28;20061;-71
2023/07/09 12:18:55;;;;;;;12.05;7.35;;;;;;;;;;5020426;28;20049;-70
2023/07/09 12:21:21;;;;;;;14.98;7.60;;;;;;;;;;5025907;28;20034;-70
2023/07/09 12:23:47;;;;;;;14.52;7.68;;;;;;;;;;5023332;28;20120;-70
2023/07/09 12:26:18;;;;;;;12.65;7.57;;;;;;;;;;5019050;28;20132;-70
2023/07/09 12:28:53;;;;;;;14.13;7.95;;;;;;;;;;5016827;28;20069;-70
2023/07/09 12:31:25;;;;;;;18.75;9.70;;;;;;;;;;5017452;28;20597;-69
2023/07/09 12:33:53;;;;;;;14.67;8.63;;;;;;;;;;5018417;28;20152;-70
2023/07/09 12:36:19;;;;;;;11.88;7.60;;;;;;;;;;5020213;28;20041;-69
2023/07/09 12:38:49;;;;;;;16.63;7.78;;;;;;;;;;5014985;28;20018;-70
2023/07/09 12:41:22;;;;;;;13.00;7.40;;;;;;;;;;5014668;28;20065;-70
2023/07/09 12:43:48;;;;;;;;;;;;;;;;;;5016318;28;20053;-70
2023/07/09 12:46:13;;;;;;;11.80;7.45;;;;;;;;;;5025733;28;19923;-70
2023/07/09 12:48:39;;;;;;;12.52;7.63;;;;;;;;;;5026073;28;20125;-69
2023/07/09 12:51:08;;;;;;;11.63;6.60;;;;;;;;;;5024607;28;20030;-69
2023/07/09 12:53:33;;;;;;;11.90;7.63;;;;;;;;;;5026507;28;20021;-69
2023/07/09 12:56:01;;;;;;;15.35;7.20;;;;;;;;;;5026985;28;20041;-69
2023/07/09 12:58:31;;;;;;;14.13;7.20;;;;;;;;;;5030804;28;20044;-69
2023/07/09 13:01:00;;;;;;;13.38;7.45;;;;;;;;;;5034329;28;20038;-70
2023/07/09 13:03:31;;;;;;;12.10;8.13;;;;;;;;;;5030840;28;20036;-69
2023/07/09 13:05:59;;;;;;;14.73;7.80;;;;;;;;;;5026833;28;20888;-70
2023/07/09 13:08:26;;;;;;;13.98;7.50;;;;;;;;;;5026613;28;20032;-69
2023/07/09 13:10:53;;;;;;;13.07;7.45;;;;;;;;;;5025152;28;20045;-69
2023/07/09 13:13:21;;;;;;;13.05;8.00;;;;;;;;;;5037321;28;20038;-69
2023/07/09 13:15:58;;;;;;;11.00;7.00;;;;;;;;;;5023678;28;20072;-70
2023/07/09 13:18:24;;;;;;;15.07;7.75;;;;;;;;;;5025431;28;20040;-70
2023/07/09 13:20:52;;;;;;;16.23;7.65;;;;;;;;;;5022825;28;20042;-69
2023/07/09 13:23:26;;;;;;;11.63;7.15;;;;;;;;;;5024436;28;20034;-69
2023/07/09 13:25:52;;;;;;;14.65;8.00;;;;;;;;;;5018440;28;20045;-70
2023/07/09 13:28:27;;;;;;;14.07;7.75;;;;;;;;;;5025341;28;20045;-70
2023/07/09 13:31:20;;;;;;;11.45;6.68;;;;;;;;;;5024367;28;20033;-70
2023/07/09 13:33:57;;;;;;;12.97;7.07;;;;;;;;;;5022998;28;20041;-69
2023/07/09 13:36:23;;;;;;;11.95;7.25;;;;;;;;;;5034030;28;20106;-70
2023/07/09 13:38:49;;;;;;;12.93;7.38;;;;;;;;;;5024180;28;20033;-70
2023/07/09 13:41:18;;;;;;;11.88;7.03;;;;;;;;;;5025332;28;20057;-70
2023/07/09 13:43:46;;;;;;;9.90;6.35;;;;;;;;;;5024509;28;20041;-70
2023/07/09 13:46:11;;;;;;;14.20;6.78;;;;;;;;;;5024602;28;20049;-70
2023/07/09 13:48:39;;;;;;;13.32;6.85;;;;;;;;;;5025267;28;20034;-71
2023/07/09 13:51:20;;;;;;;11.80;7.30;;;;;;;;;;5024811;28;20037;-70
2023/07/09 13:53:46;;;;;;;12.52;7.65;;;;;;;;;;5023787;28;20053;-70
2023/07/09 13:56:11;;;;;;;11.90;7.22;;;;;;;;;;5023316;28;20456;-71
2023/07/09 13:58:36;;;;;;;11.95;7.43;;;;;;;;;;5025356;28;20037;-71
2023/07/09 14:01:12;;;;;;;12.18;7.00;;;;;;;;;;5023808;28;20151;-71
2023/07/09 14:03:38;;;;;;;11.15;6.97;;;;;;;;;;5025031;28;20041;-70
2023/07/09 14:06:04;;;;;;;11.70;6.88;;;;;;;;;;5024885;28;20049;-70
2023/07/09 14:08:29;;;;;;;8.45;6.00;;;;;;;;;;5023911;28;20029;-70
2023/07/09 14:10:55;;;;;;;10.52;6.43;;;;;;;;;;5024704;28;20117;-70
2023/07/09 14:13:23;;;;;;;10.63;5.75;;;;;;;;;;5038368;28;20029;-70
2023/07/09 14:15:48;;;;;;;10.55;6.43;;;;;;;;;;5024270;28;20266;-71
2023/07/09 14:18:16;;;;;;;12.77;6.53;;;;;;;;;;5025206;28;20557;-70
2023/07/09 14:20:42;;;;;;;8.80;6.63;;;;;;;;;;5025698;28;20040;-70
2023/07/09 14:23:11;;;;;;;12.00;6.45;;;;;;;;;;5025801;28;20049;-69
2023/07/09 14:25:37;;;;;;;10.95;6.28;;;;;;;;;;5030013;28;20037;-70
2023/07/09 14:28:11;;;;;;;9.55;5.90;;;;;;;;;;5031291;28;20037;-70
2023/07/09 14:30:37;;;;;;;9.20;5.72;;;;;;;;;;5024986;28;20474;-71
2023/07/09 14:33:03;;;;;;;9.57;6.60;;;;;;;;;;5013737;28;20034;-70
2023/07/09 14:35:29;;;;;;;9.43;6.22;;;;;;;;;;5026961;28;20031;-70
2023/07/09 14:37:55;;;;;;;10.77;5.47;;;;;;;;;;5033488;28;20045;-70
2023/07/09 14:40:21;;;;;;;8.45;5.47;;;;;;;;;;5023283;28;20140;-70
2023/07/09 14:42:48;;;;;;;10.60;5.93;;;;;;;;;;5025482;28;20052;-70